createdAt,value
2023-03-13T00:00:01.429Z,25.42
2023-03-13T00:00:11.457Z,25.42
2023-03-13T00:00:21.445Z,25.41
2023-03-13T00:00:31.569Z,25.42
2023-03-13T00:00:41.573Z,25.42
2023-03-13T00:00:51.581Z,25.43
2023-03-13T00:01:01.600Z,25.43
2023-03-13T00:01:11.597Z,25.43
2023-03-13T00:01:21.615Z,25.43
2023-03-13T00:01:31.870Z,25.43
2023-03-13T00:01:41.918Z,25.43
2023-03-13T00:01:51.994Z,25.43
2023-03-13T00:02:02.028Z,25.44
2023-03-13T00:02:12.088Z,25.43
2023-03-13T00:02:22.143Z,25.43
2023-03-13T00:02:32.314Z,25.44
2023-03-13T00:02:42.244Z,25.44
2023-03-13T00:02:52.245Z,25.41
2023-03-13T00:03:02.244Z,25.41
2023-03-13T00:03:12.509Z,25.38
2023-03-13T00:03:22.511Z,25.35
2023-03-13T00:03:32.640Z,25.30
2023-03-13T00:03:42.910Z,25.26
2023-03-13T00:03:53.095Z,25.23
2023-03-13T00:04:03.080Z,25.23
2023-03-13T00:04:13.327Z,25.20
2023-03-13T00:04:23.363Z,25.19
2023-03-13T00:04:33.394Z,25.18
2023-03-13T00:04:43.449Z,25.18
2023-03-13T00:04:53.561Z,25.18
2023-03-13T00:05:03.595Z,25.18
2023-03-13T00:05:13.650Z,25.19
2023-03-13T00:05:23.795Z,25.19
2023-03-13T00:05:33.839Z,25.19
2023-03-13T00:05:43.843Z,25.20
2023-03-13T00:05:53.846Z,25.20
2023-03-13T00:06:03.987Z,25.21
2023-03-13T00:06:13.987Z,25.22
2023-03-13T00:06:24.252Z,25.23
2023-03-13T00:06:34.258Z,25.24
2023-03-13T00:06:44.267Z,25.25
2023-03-13T00:06:54.267Z,25.25
2023-03-13T00:07:04.389Z,25.25
2023-03-13T00:07:14.400Z,25.27
2023-03-13T00:07:24.413Z,25.28
2023-03-13T00:07:34.418Z,25.28
2023-03-13T00:07:44.430Z,25.29
2023-03-13T00:07:54.428Z,25.30
2023-03-13T00:08:04.703Z,25.31
2023-03-13T00:08:14.719Z,25.31
2023-03-13T00:08:24.710Z,25.32
2023-03-13T00:08:34.716Z,25.32
2023-03-13T00:08:44.719Z,25.32
2023-03-13T00:08:54.782Z,25.33
2023-03-13T00:09:04.774Z,25.33
2023-03-13T00:09:14.785Z,25.33
2023-03-13T00:09:24.902Z,25.33
2023-03-13T00:09:34.913Z,25.33
2023-03-13T00:09:45.176Z,25.35
2023-03-13T00:09:55.183Z,25.35
2023-03-13T00:10:05.189Z,25.36
2023-03-13T00:10:15.215Z,25.35
2023-03-13T00:10:25.221Z,25.36
2023-03-13T00:10:35.226Z,25.36
2023-03-13T00:10:45.239Z,25.36
2023-03-13T00:10:55.244Z,25.37
2023-03-13T00:11:05.380Z,25.38
2023-03-13T00:11:15.389Z,25.38
2023-03-13T00:11:25.638Z,25.38
2023-03-13T00:11:35.646Z,25.39
2023-03-13T00:11:45.771Z,25.39
2023-03-13T00:11:56.033Z,25.39
2023-03-13T00:12:06.144Z,25.39
2023-03-13T00:12:16.146Z,25.41
2023-03-13T00:12:26.409Z,25.41
2023-03-13T00:12:36.412Z,25.41
2023-03-13T00:12:46.425Z,25.40
2023-03-13T00:12:56.434Z,25.41
2023-03-13T00:13:06.551Z,25.41
2023-03-13T00:13:16.548Z,25.41
2023-03-13T00:13:26.564Z,25.41
2023-03-13T00:13:36.581Z,25.41
2023-03-13T00:13:46.572Z,25.41
2023-03-13T00:13:56.609Z,25.41
2023-03-13T00:14:06.865Z,25.41
2023-03-13T00:14:16.865Z,25.42
2023-03-13T00:14:26.986Z,25.42
2023-03-13T00:14:37.241Z,25.41
2023-03-13T00:14:47.378Z,25.41
2023-03-13T00:14:57.385Z,25.41
2023-03-13T00:15:07.638Z,25.41
2023-03-13T00:15:17.645Z,25.41
2023-03-13T00:15:27.763Z,25.41
2023-03-13T00:15:38.028Z,25.40
2023-03-13T00:15:48.161Z,25.41
2023-03-13T00:15:58.159Z,25.39
2023-03-13T00:16:08.498Z,25.41
2023-03-13T00:16:18.553Z,25.41
2023-03-13T00:16:28.568Z,25.41
2023-03-13T00:16:38.738Z,25.41
2023-03-13T00:16:48.787Z,25.41
2023-03-13T00:16:58.701Z,25.41
2023-03-13T00:17:08.886Z,25.42
2023-03-13T00:17:18.922Z,25.42
2023-03-13T00:17:29.044Z,25.43
2023-03-13T00:17:39.043Z,25.42
2023-03-13T00:17:49.304Z,25.42
2023-03-13T00:17:59.300Z,25.42
2023-03-13T00:18:09.425Z,25.42
2023-03-13T00:18:19.686Z,25.42
2023-03-13T00:18:29.806Z,25.42
2023-03-13T00:18:39.814Z,25.42
2023-03-13T00:18:50.093Z,25.43
2023-03-13T00:19:00.096Z,25.43
2023-03-13T00:19:10.078Z,25.43
2023-03-13T00:19:20.078Z,25.43
2023-03-13T00:19:30.115Z,25.43
2023-03-13T00:19:40.107Z,25.44
2023-03-13T00:19:50.099Z,25.44
2023-03-13T00:20:00.113Z,25.44
2023-03-13T00:20:10.115Z,25.44
2023-03-13T00:20:20.118Z,25.43
2023-03-13T00:20:30.131Z,25.43
2023-03-13T00:20:40.124Z,25.44
2023-03-13T00:20:50.259Z,25.43
2023-03-13T00:21:00.268Z,25.43
2023-03-13T00:21:10.272Z,25.44
2023-03-13T00:21:20.271Z,25.44
2023-03-13T00:21:30.398Z,25.44
2023-03-13T00:21:40.532Z,25.44
2023-03-13T00:21:50.657Z,25.44
2023-03-13T00:22:00.667Z,25.45
2023-03-13T00:22:10.914Z,25.45
2023-03-13T00:22:20.924Z,25.45
2023-03-13T00:22:30.933Z,25.45
2023-03-13T00:22:40.940Z,25.44
2023-03-13T00:22:50.953Z,25.44
2023-03-13T00:23:00.958Z,25.44
2023-03-13T00:23:10.968Z,25.45
2023-03-13T00:23:20.980Z,25.44
2023-03-13T00:23:31.113Z,25.44
2023-03-13T00:23:41.108Z,25.44
2023-03-13T00:23:51.368Z,25.44
2023-03-13T00:24:01.380Z,25.44
2023-03-13T00:24:11.383Z,25.44
2023-03-13T00:24:21.388Z,25.45
2023-03-13T00:24:31.387Z,25.45
2023-03-13T00:24:41.398Z,25.45
2023-03-13T00:24:51.532Z,25.44
2023-03-13T00:25:01.536Z,25.44
2023-03-13T00:25:11.551Z,25.44
2023-03-13T00:25:21.563Z,25.44
2023-03-13T00:25:31.843Z,25.44
2023-03-13T00:25:41.841Z,25.44
2023-03-13T00:25:51.961Z,25.44
2023-03-13T00:26:02.221Z,25.44
2023-03-13T00:26:12.224Z,25.44
2023-03-13T00:26:22.227Z,25.45
2023-03-13T00:26:32.257Z,25.44
2023-03-13T00:26:42.261Z,25.44
2023-03-13T00:26:52.270Z,25.44
2023-03-13T00:27:02.264Z,25.44
2023-03-13T00:27:12.280Z,25.44
2023-03-13T00:27:22.282Z,25.45
2023-03-13T00:27:32.295Z,25.45
2023-03-13T00:27:42.311Z,25.45
2023-03-13T00:27:52.326Z,25.45
2023-03-13T00:28:02.332Z,25.45
2023-03-13T00:28:12.328Z,25.45
2023-03-13T00:28:22.446Z,25.46
2023-03-13T00:28:32.918Z,25.45
2023-03-13T00:28:42.550Z,25.44
2023-03-13T00:28:52.683Z,25.44
2023-03-13T00:29:02.684Z,25.45
2023-03-13T00:29:12.713Z,25.45
2023-03-13T00:29:22.701Z,25.44
2023-03-13T00:29:32.727Z,25.44
2023-03-13T00:29:42.729Z,25.44
2023-03-13T00:29:52.747Z,25.44
2023-03-13T00:30:02.764Z,25.45
2023-03-13T00:30:12.932Z,25.45
2023-03-13T00:30:22.941Z,25.45
2023-03-13T00:30:33.286Z,25.45
2023-03-13T00:30:43.302Z,25.45
2023-03-13T00:30:53.369Z,25.44
2023-03-13T00:31:03.313Z,25.45
2023-03-13T00:31:13.367Z,25.45
2023-03-13T00:31:23.538Z,25.46
2023-03-13T00:31:33.568Z,25.45
2023-03-13T00:31:43.620Z,25.45
2023-03-13T00:31:53.752Z,25.45
2023-03-13T00:32:03.861Z,25.45
2023-03-13T00:32:13.932Z,25.46
2023-03-13T00:32:23.972Z,25.46
2023-03-13T00:32:33.981Z,25.46
2023-03-13T00:32:44.068Z,25.46
2023-03-13T00:32:54.116Z,25.46
2023-03-13T00:33:04.229Z,25.46
2023-03-13T00:33:14.224Z,25.46
2023-03-13T00:33:24.246Z,25.46
2023-03-13T00:33:34.260Z,25.47
2023-03-13T00:33:44.267Z,25.47
2023-03-13T00:33:54.286Z,25.48
2023-03-13T00:34:04.295Z,25.47
2023-03-13T00:34:14.291Z,25.48
2023-03-13T00:34:24.305Z,25.48
2023-03-13T00:34:34.353Z,25.48
2023-03-13T00:34:44.329Z,25.49
2023-03-13T00:34:54.336Z,25.49
2023-03-13T00:35:04.344Z,25.50
2023-03-13T00:35:14.363Z,25.49
2023-03-13T00:35:24.409Z,25.48
2023-03-13T00:35:34.521Z,25.48
2023-03-13T00:35:44.552Z,25.49
2023-03-13T00:35:54.632Z,25.49
2023-03-13T00:36:04.663Z,25.48
2023-03-13T00:36:14.909Z,25.48
2023-03-13T00:36:24.916Z,25.48
2023-03-13T00:36:34.937Z,25.48
2023-03-13T00:36:44.946Z,25.48
2023-03-13T00:36:54.955Z,25.47
2023-03-13T00:37:04.956Z,25.47
2023-03-13T00:37:15.012Z,25.47
2023-03-13T00:37:24.995Z,25.47
2023-03-13T00:37:35.135Z,25.46
2023-03-13T00:37:45.134Z,25.47
2023-03-13T00:37:55.391Z,25.47
2023-03-13T00:38:05.386Z,25.47
2023-03-13T00:38:15.511Z,25.47
2023-03-13T00:38:25.777Z,25.46
2023-03-13T00:38:35.786Z,25.47
2023-03-13T00:38:45.793Z,25.47
2023-03-13T00:38:55.806Z,25.48
2023-03-13T00:39:05.823Z,25.48
2023-03-13T00:39:15.950Z,25.48
2023-03-13T00:39:25.939Z,25.48
2023-03-13T00:39:36.074Z,25.48
2023-03-13T00:39:46.071Z,25.47
2023-03-13T00:39:56.196Z,25.48
2023-03-13T00:40:06.211Z,25.47
2023-03-13T00:40:16.211Z,25.47
2023-03-13T00:40:26.229Z,25.47
2023-03-13T00:40:36.220Z,25.47
2023-03-13T00:40:46.226Z,25.47
2023-03-13T00:40:56.227Z,25.47
2023-03-13T00:41:06.233Z,25.46
2023-03-13T00:41:16.245Z,25.47
2023-03-13T00:41:26.285Z,25.48
2023-03-13T00:41:36.275Z,25.48
2023-03-13T00:41:46.274Z,25.48
2023-03-13T00:41:56.298Z,25.48
2023-03-13T00:42:06.296Z,25.48
2023-03-13T00:42:16.312Z,25.49
2023-03-13T00:42:26.311Z,25.48
2023-03-13T00:42:36.350Z,25.49
2023-03-13T00:42:46.354Z,25.48
2023-03-13T00:42:56.751Z,25.48
2023-03-13T00:43:06.751Z,25.48
2023-03-13T00:43:16.750Z,25.48
2023-03-13T00:43:26.756Z,25.49
2023-03-13T00:43:36.756Z,25.48
2023-03-13T00:43:46.764Z,25.48
2023-03-13T00:43:56.782Z,25.48
2023-03-13T00:44:06.806Z,25.49
2023-03-13T00:44:16.813Z,25.48
2023-03-13T00:44:26.797Z,25.48
2023-03-13T00:44:36.805Z,25.48
2023-03-13T00:44:46.817Z,25.49
2023-03-13T00:44:56.831Z,25.50
2023-03-13T00:45:06.840Z,25.50
2023-03-13T00:45:16.959Z,25.50
2023-03-13T00:45:26.970Z,25.50
2023-03-13T00:45:36.964Z,25.50
2023-03-13T00:45:47.285Z,25.50
2023-03-13T00:45:57.319Z,25.49
2023-03-13T00:46:07.406Z,25.49
2023-03-13T00:46:17.827Z,25.49
2023-03-13T00:46:27.916Z,25.50
2023-03-13T00:46:37.873Z,25.49
2023-03-13T00:46:47.847Z,25.49
2023-03-13T00:46:57.844Z,25.49
2023-03-13T00:47:07.845Z,25.49
2023-03-13T00:47:17.972Z,25.50
2023-03-13T00:47:27.986Z,25.48
2023-03-13T00:47:37.992Z,25.49
2023-03-13T00:47:47.992Z,25.50
2023-03-13T00:47:58.264Z,25.50
2023-03-13T00:48:08.270Z,25.50
2023-03-13T00:48:18.391Z,25.49
2023-03-13T00:48:28.654Z,25.50
2023-03-13T00:48:38.667Z,25.50
2023-03-13T00:48:48.711Z,25.50
2023-03-13T00:48:58.699Z,25.50
2023-03-13T00:49:08.691Z,25.50
2023-03-13T00:49:18.693Z,25.50
2023-03-13T00:49:28.695Z,25.50
2023-03-13T00:49:38.731Z,25.50
2023-03-13T00:49:48.726Z,25.50
2023-03-13T00:49:58.725Z,25.50
2023-03-13T00:50:08.733Z,25.50
2023-03-13T00:50:18.747Z,25.50
2023-03-13T00:50:28.760Z,25.50
2023-03-13T00:50:38.767Z,25.51
2023-03-13T00:50:48.789Z,25.51
2023-03-13T00:50:58.789Z,25.51
2023-03-13T00:51:08.793Z,25.51
2023-03-13T00:51:18.802Z,25.51
2023-03-13T00:51:28.847Z,25.51
2023-03-13T00:51:38.820Z,25.52
2023-03-13T00:51:48.835Z,25.52
2023-03-13T00:51:58.848Z,25.52
2023-03-13T00:52:08.857Z,25.52
2023-03-13T00:52:18.886Z,25.52
2023-03-13T00:52:28.883Z,25.51
2023-03-13T00:52:38.884Z,25.50
2023-03-13T00:52:48.889Z,25.50
2023-03-13T00:52:58.899Z,25.50
2023-03-13T00:53:08.934Z,25.51
2023-03-13T00:53:18.923Z,25.51
2023-03-13T00:53:28.934Z,25.50
2023-03-13T00:53:38.973Z,25.50
2023-03-13T00:53:49.028Z,25.51
2023-03-13T00:53:59.024Z,25.51
2023-03-13T00:54:09.143Z,25.51
2023-03-13T00:54:19.152Z,25.52
2023-03-13T00:54:29.283Z,25.51
2023-03-13T00:54:39.275Z,25.51
2023-03-13T00:54:49.404Z,25.50
2023-03-13T00:54:59.403Z,25.50
2023-03-13T00:55:09.528Z,25.50
2023-03-13T00:55:19.795Z,25.50
2023-03-13T00:55:29.913Z,25.51
2023-03-13T00:55:39.914Z,25.51
2023-03-13T00:55:50.184Z,25.51
2023-03-13T00:56:00.193Z,25.51
2023-03-13T00:56:10.203Z,25.51
2023-03-13T00:56:20.209Z,25.52
2023-03-13T00:56:30.325Z,25.52
2023-03-13T00:56:40.326Z,25.52
2023-03-13T00:56:50.330Z,25.51
2023-03-13T00:57:00.356Z,25.52
2023-03-13T00:57:10.385Z,25.51
2023-03-13T00:57:20.412Z,25.52
2023-03-13T00:57:30.686Z,25.52
2023-03-13T00:57:40.671Z,25.53
2023-03-13T00:57:50.792Z,25.53
2023-03-13T00:58:01.067Z,25.53
2023-03-13T00:58:11.171Z,25.52
2023-03-13T00:58:21.179Z,25.52
2023-03-13T00:58:31.428Z,25.52
2023-03-13T00:58:41.439Z,25.53
2023-03-13T00:58:51.469Z,25.53
2023-03-13T00:59:01.475Z,25.53
2023-03-13T00:59:11.502Z,25.52
2023-03-13T00:59:21.473Z,25.53
2023-03-13T00:59:31.482Z,25.52
2023-03-13T00:59:41.483Z,25.52
2023-03-13T00:59:51.617Z,25.53
2023-03-13T01:00:01.621Z,25.52
2023-03-13T01:00:11.893Z,25.52
2023-03-13T01:00:21.909Z,25.51
2023-03-13T01:00:32.028Z,25.51
2023-03-13T01:00:42.295Z,25.52
2023-03-13T01:00:52.310Z,25.52
2023-03-13T01:01:02.348Z,25.53
2023-03-13T01:01:12.342Z,25.52
2023-03-13T01:01:22.384Z,25.52
2023-03-13T01:01:32.385Z,25.52
2023-03-13T01:01:42.382Z,25.52
2023-03-13T01:01:52.504Z,25.53
2023-03-13T01:02:02.558Z,25.53
2023-03-13T01:02:12.679Z,25.53
2023-03-13T01:02:23.000Z,25.53
2023-03-13T01:02:33.042Z,25.53
2023-03-13T01:02:43.032Z,25.52
2023-03-13T01:02:53.127Z,25.53
2023-03-13T01:03:03.103Z,25.53
2023-03-13T01:03:13.216Z,25.53
2023-03-13T01:03:23.262Z,25.53
2023-03-13T01:03:33.334Z,25.53
2023-03-13T01:03:43.332Z,25.54
2023-03-13T01:03:53.412Z,25.53
2023-03-13T01:04:03.421Z,25.54
2023-03-13T01:04:13.435Z,25.54
2023-03-13T01:04:23.429Z,25.54
2023-03-13T01:04:33.553Z,25.55
2023-03-13T01:04:43.590Z,25.55
2023-03-13T01:04:53.579Z,25.55
2023-03-13T01:05:03.578Z,25.54
2023-03-13T01:05:13.830Z,25.54
2023-03-13T01:05:23.842Z,25.53
2023-03-13T01:05:33.866Z,25.54
2023-03-13T01:05:43.860Z,25.55
2023-03-13T01:05:53.892Z,25.55
2023-03-13T01:06:03.988Z,25.54
2023-03-13T01:06:13.968Z,25.54
2023-03-13T01:06:23.974Z,25.54
2023-03-13T01:06:33.985Z,25.55
2023-03-13T01:06:43.978Z,25.55
2023-03-13T01:06:54.364Z,25.55
2023-03-13T01:07:04.377Z,25.55
2023-03-13T01:07:14.439Z,25.55
2023-03-13T01:07:24.436Z,25.55
2023-03-13T01:07:34.448Z,25.55
2023-03-13T01:07:44.446Z,25.55
2023-03-13T01:07:54.572Z,25.56
2023-03-13T01:08:04.574Z,25.55
2023-03-13T01:08:14.595Z,25.55
2023-03-13T01:08:24.578Z,25.55
2023-03-13T01:08:34.829Z,25.55
2023-03-13T01:08:44.855Z,25.55
2023-03-13T01:08:54.853Z,25.55
2023-03-13T01:09:04.869Z,25.55
2023-03-13T01:09:14.886Z,25.55
2023-03-13T01:09:24.878Z,25.54
2023-03-13T01:09:34.882Z,25.54
2023-03-13T01:09:44.888Z,25.54
2023-03-13T01:09:54.889Z,25.54
2023-03-13T01:10:04.896Z,25.54
2023-03-13T01:10:14.895Z,25.55
2023-03-13T01:10:24.899Z,25.55
2023-03-13T01:10:35.030Z,25.55
2023-03-13T01:10:45.034Z,25.55
2023-03-13T01:10:55.154Z,25.55
2023-03-13T01:11:05.157Z,25.54
2023-03-13T01:11:15.274Z,25.54
2023-03-13T01:11:25.309Z,25.54
2023-03-13T01:11:35.304Z,25.54
2023-03-13T01:11:45.294Z,25.54
2023-03-13T01:11:55.297Z,25.55
2023-03-13T01:12:05.306Z,25.55
2023-03-13T01:12:15.426Z,25.55
2023-03-13T01:12:25.427Z,25.55
2023-03-13T01:12:35.554Z,25.56
2023-03-13T01:12:45.557Z,25.56
2023-03-13T01:12:55.770Z,25.55
2023-03-13T01:13:05.784Z,25.55
2023-03-13T01:13:15.904Z,25.55
2023-03-13T01:13:25.904Z,25.55
2023-03-13T01:13:36.171Z,25.55
2023-03-13T01:13:46.184Z,25.56
2023-03-13T01:13:56.192Z,25.55
2023-03-13T01:14:06.199Z,25.55
2023-03-13T01:14:16.216Z,25.55
2023-03-13T01:14:26.220Z,25.56
2023-03-13T01:14:36.232Z,25.57
2023-03-13T01:14:46.238Z,25.56
2023-03-13T01:14:56.291Z,25.55
2023-03-13T01:15:06.289Z,25.55
2023-03-13T01:15:16.680Z,25.55
2023-03-13T01:15:26.679Z,25.55
2023-03-13T01:15:36.850Z,25.55
2023-03-13T01:15:47.159Z,25.54
2023-03-13T01:15:57.192Z,25.54
2023-03-13T01:16:07.240Z,25.54
2023-03-13T01:16:17.284Z,25.55
2023-03-13T01:16:27.337Z,25.55
2023-03-13T01:16:37.326Z,25.55
2023-03-13T01:16:47.325Z,25.55
2023-03-13T01:16:57.346Z,25.55
2023-03-13T01:17:07.345Z,25.55
2023-03-13T01:17:17.363Z,25.55
2023-03-13T01:17:27.364Z,25.55
2023-03-13T01:17:37.378Z,25.55
2023-03-13T01:17:47.381Z,25.55
2023-03-13T01:17:57.378Z,25.55
2023-03-13T01:18:07.416Z,25.55
2023-03-13T01:18:17.422Z,25.55
2023-03-13T01:18:27.421Z,25.55
2023-03-13T01:18:37.447Z,25.55
2023-03-13T01:18:47.462Z,25.56
2023-03-13T01:18:57.494Z,25.56
2023-03-13T01:19:07.505Z,25.55
2023-03-13T01:19:17.509Z,25.55
2023-03-13T01:19:27.532Z,25.55
2023-03-13T01:19:37.526Z,25.55
2023-03-13T01:19:47.562Z,25.56
2023-03-13T01:19:57.555Z,25.55
2023-03-13T01:20:07.556Z,25.55
2023-03-13T01:20:17.551Z,25.56
2023-03-13T01:20:27.554Z,25.56
2023-03-13T01:20:37.685Z,25.55
2023-03-13T01:20:47.696Z,25.56
2023-03-13T01:20:57.952Z,25.56
2023-03-13T01:21:07.956Z,25.57
2023-03-13T01:21:18.076Z,25.57
2023-03-13T01:21:28.344Z,25.56
2023-03-13T01:21:38.461Z,25.56
2023-03-13T01:21:48.479Z,25.57
2023-03-13T01:21:58.731Z,25.57
2023-03-13T01:22:08.742Z,25.56
2023-03-13T01:22:18.748Z,25.57
2023-03-13T01:22:28.758Z,25.56
2023-03-13T01:22:38.781Z,25.56
2023-03-13T01:22:48.782Z,25.56
2023-03-13T01:22:58.797Z,25.56
2023-03-13T01:23:08.803Z,25.56
2023-03-13T01:23:18.816Z,25.56
2023-03-13T01:23:28.826Z,25.56
2023-03-13T01:23:38.832Z,25.56
2023-03-13T01:23:48.855Z,25.56
2023-03-13T01:23:58.853Z,25.56
2023-03-13T01:24:08.865Z,25.56
2023-03-13T01:24:18.880Z,25.56
2023-03-13T01:24:28.879Z,25.55
2023-03-13T01:24:38.898Z,25.56
2023-03-13T01:24:48.896Z,25.55
2023-03-13T01:24:58.905Z,25.54
2023-03-13T01:25:08.897Z,25.55
2023-03-13T01:25:19.023Z,25.55
2023-03-13T01:25:29.034Z,25.55
2023-03-13T01:25:39.034Z,25.56
2023-03-13T01:25:49.032Z,25.56
2023-03-13T01:25:59.308Z,25.56
2023-03-13T01:26:09.317Z,25.55
2023-03-13T01:26:19.332Z,25.56
2023-03-13T01:26:29.370Z,25.55
2023-03-13T01:26:39.372Z,25.56
2023-03-13T01:26:49.375Z,25.57
2023-03-13T01:26:59.378Z,25.57
2023-03-13T01:27:09.391Z,25.57
2023-03-13T01:27:19.387Z,25.56
2023-03-13T01:27:29.414Z,25.57
2023-03-13T01:27:39.405Z,25.57
2023-03-13T01:27:49.413Z,25.56
2023-03-13T01:27:59.533Z,25.56
2023-03-13T01:28:09.547Z,25.57
2023-03-13T01:28:19.543Z,25.56
2023-03-13T01:28:29.553Z,25.57
2023-03-13T01:28:39.567Z,25.57
2023-03-13T01:28:49.827Z,25.57
2023-03-13T01:28:59.832Z,25.57
2023-03-13T01:29:09.839Z,25.57
2023-03-13T01:29:19.861Z,25.57
2023-03-13T01:29:29.856Z,25.57
2023-03-13T01:29:40.020Z,25.57
2023-03-13T01:29:50.010Z,25.57
2023-03-13T01:30:00.016Z,25.58
2023-03-13T01:30:10.018Z,25.58
2023-03-13T01:30:20.017Z,25.57
2023-03-13T01:30:30.276Z,25.57
2023-03-13T01:30:40.560Z,25.57
2023-03-13T01:30:50.522Z,25.57
2023-03-13T01:31:00.706Z,25.57
2023-03-13T01:31:10.730Z,25.56
2023-03-13T01:31:20.826Z,25.57
2023-03-13T01:31:30.882Z,25.58
2023-03-13T01:31:40.893Z,25.58
2023-03-13T01:31:50.896Z,25.58
2023-03-13T01:32:00.892Z,25.58
2023-03-13T01:32:11.021Z,25.58
2023-03-13T01:32:21.086Z,25.58
2023-03-13T01:32:31.099Z,25.58
2023-03-13T01:32:41.414Z,25.57
2023-03-13T01:32:51.454Z,25.58
2023-03-13T01:33:01.507Z,25.58
2023-03-13T01:33:11.892Z,25.58
2023-03-13T01:33:21.925Z,25.58
2023-03-13T01:33:31.913Z,25.58
2023-03-13T01:33:41.936Z,25.58
2023-03-13T01:33:51.956Z,25.58
2023-03-13T01:34:01.966Z,25.57
2023-03-13T01:34:11.972Z,25.57
2023-03-13T01:34:21.983Z,25.56
2023-03-13T01:34:31.977Z,25.56
2023-03-13T01:34:42.087Z,25.57
2023-03-13T01:34:52.397Z,25.57
2023-03-13T01:35:02.381Z,25.56
2023-03-13T01:35:12.504Z,25.56
2023-03-13T01:35:22.836Z,25.56
2023-03-13T01:35:32.937Z,25.55
2023-03-13T01:35:42.996Z,25.56
2023-03-13T01:35:53.214Z,25.56
2023-03-13T01:36:03.070Z,25.56
2023-03-13T01:36:13.068Z,25.55
2023-03-13T01:36:23.072Z,25.55
2023-03-13T01:36:33.335Z,25.56
2023-03-13T01:36:43.347Z,25.56
2023-03-13T01:36:53.355Z,25.58
2023-03-13T01:37:03.371Z,25.57
2023-03-13T01:37:13.371Z,25.58
2023-03-13T01:37:23.384Z,25.57
2023-03-13T01:37:33.509Z,25.57
2023-03-13T01:37:43.511Z,25.57
2023-03-13T01:37:53.528Z,25.58
2023-03-13T01:38:03.525Z,25.58
2023-03-13T01:38:13.783Z,25.59
2023-03-13T01:38:23.777Z,25.59
2023-03-13T01:38:33.786Z,25.58
2023-03-13T01:38:43.827Z,25.59
2023-03-13T01:38:53.808Z,25.59
2023-03-13T01:39:03.808Z,25.59
2023-03-13T01:39:13.814Z,25.59
2023-03-13T01:39:23.822Z,25.59
2023-03-13T01:39:33.832Z,25.59
2023-03-13T01:39:43.832Z,25.59
2023-03-13T01:39:53.838Z,25.60
2023-03-13T01:40:03.875Z,25.60
2023-03-13T01:40:13.906Z,25.60
2023-03-13T01:40:23.896Z,25.60
2023-03-13T01:40:33.908Z,25.60
2023-03-13T01:40:43.923Z,25.59
2023-03-13T01:40:53.925Z,25.60
2023-03-13T01:41:03.917Z,25.59
2023-03-13T01:41:13.934Z,25.59
2023-03-13T01:41:23.945Z,25.58
2023-03-13T01:41:34.100Z,25.59
2023-03-13T01:41:44.087Z,25.59
2023-03-13T01:41:54.206Z,25.58
2023-03-13T01:42:04.210Z,25.58
2023-03-13T01:42:14.345Z,25.58
2023-03-13T01:42:24.352Z,25.59
2023-03-13T01:42:34.357Z,25.58
2023-03-13T01:42:44.366Z,25.58
2023-03-13T01:42:54.377Z,25.59
2023-03-13T01:43:06.332Z,25.58
2023-03-13T01:43:17.580Z,25.56
2023-03-13T01:43:26.786Z,25.51
2023-03-13T01:43:34.497Z,25.52
2023-03-13T01:43:44.492Z,25.53
2023-03-13T01:43:54.494Z,25.54
2023-03-13T01:44:04.499Z,25.54
2023-03-13T01:44:14.631Z,25.55
2023-03-13T01:44:24.620Z,25.55
2023-03-13T01:44:34.749Z,25.56
2023-03-13T01:44:44.753Z,25.56
2023-03-13T01:44:54.875Z,25.57
2023-03-13T01:45:05.014Z,25.57
2023-03-13T01:45:15.030Z,25.57
2023-03-13T01:45:25.020Z,25.57
2023-03-13T01:45:35.038Z,25.57
2023-03-13T01:45:45.042Z,25.56
2023-03-13T01:45:55.145Z,25.57
2023-03-13T01:46:05.213Z,25.57
2023-03-13T01:46:15.296Z,25.58
2023-03-13T01:46:25.462Z,25.58
2023-03-13T01:46:35.445Z,25.58
2023-03-13T01:46:45.631Z,25.58
2023-03-13T01:46:55.665Z,25.58
2023-03-13T01:47:05.662Z,25.58
2023-03-13T01:47:15.667Z,25.59
2023-03-13T01:47:25.675Z,25.59
2023-03-13T01:47:35.695Z,25.58
2023-03-13T01:47:48.141Z,25.58
2023-03-13T01:47:55.807Z,25.57
2023-03-13T01:48:05.826Z,25.57
2023-03-13T01:48:16.079Z,25.58
2023-03-13T01:48:26.075Z,25.58
2023-03-13T01:48:36.194Z,25.58
2023-03-13T01:48:46.472Z,25.59
2023-03-13T01:48:56.577Z,25.59
2023-03-13T01:49:06.603Z,25.59
2023-03-13T01:49:16.845Z,25.60
2023-03-13T01:49:26.837Z,25.60
2023-03-13T01:49:36.955Z,25.59
2023-03-13T01:49:47.218Z,25.60
2023-03-13T01:49:57.254Z,25.59
2023-03-13T01:50:07.243Z,25.59
2023-03-13T01:50:17.247Z,25.59
2023-03-13T01:50:27.256Z,25.59
2023-03-13T01:50:37.267Z,25.58
2023-03-13T01:50:47.279Z,25.58
2023-03-13T01:50:57.290Z,25.59
2023-03-13T01:51:07.295Z,25.59
2023-03-13T01:51:17.305Z,25.59
2023-03-13T01:51:27.322Z,25.59
2023-03-13T01:51:37.333Z,25.59
2023-03-13T01:51:47.337Z,25.60
2023-03-13T01:51:57.345Z,25.59
2023-03-13T01:52:07.366Z,25.59
2023-03-13T01:52:17.367Z,25.59
2023-03-13T01:52:27.375Z,25.59
2023-03-13T01:52:37.385Z,25.59
2023-03-13T01:52:47.396Z,25.59
2023-03-13T01:52:57.426Z,25.59
2023-03-13T01:53:07.414Z,25.59
2023-03-13T01:53:17.424Z,25.59
2023-03-13T01:53:27.438Z,25.59
2023-03-13T01:53:37.442Z,25.58
2023-03-13T01:53:47.454Z,25.58
2023-03-13T01:53:57.468Z,25.58
2023-03-13T01:54:07.479Z,25.59
2023-03-13T01:54:17.488Z,25.59
2023-03-13T01:54:27.496Z,25.60
2023-03-13T01:54:37.618Z,25.60
2023-03-13T01:54:47.695Z,25.60
2023-03-13T01:54:57.964Z,25.60
2023-03-13T01:55:07.987Z,25.60
2023-03-13T01:55:17.978Z,25.61
2023-03-13T01:55:27.967Z,25.59
2023-03-13T01:55:38.101Z,25.59
2023-03-13T01:55:48.094Z,25.60
2023-03-13T01:55:58.099Z,25.60
2023-03-13T01:56:08.106Z,25.59
2023-03-13T01:56:18.231Z,25.60
2023-03-13T01:56:28.228Z,25.60
2023-03-13T01:56:38.356Z,25.60
2023-03-13T01:56:48.368Z,25.60
2023-03-13T01:56:58.366Z,25.62
2023-03-13T01:57:08.361Z,25.61
2023-03-13T01:57:18.371Z,25.61
2023-03-13T01:57:28.371Z,25.61
2023-03-13T01:57:38.492Z,25.61
2023-03-13T01:57:48.504Z,25.61
2023-03-13T01:57:58.501Z,25.61
2023-03-13T01:58:08.511Z,25.60
2023-03-13T01:58:18.773Z,25.60
2023-03-13T01:58:28.778Z,25.60
2023-03-13T01:58:38.777Z,25.60
2023-03-13T01:58:48.775Z,25.60
2023-03-13T01:58:58.908Z,25.60
2023-03-13T01:59:08.901Z,25.60
2023-03-13T01:59:19.020Z,25.60
2023-03-13T01:59:29.027Z,25.59
2023-03-13T01:59:39.029Z,25.59
2023-03-13T01:59:49.033Z,25.59
2023-03-13T01:59:59.179Z,25.59
2023-03-13T02:00:09.186Z,25.59
2023-03-13T02:00:19.190Z,25.59
2023-03-13T02:00:29.195Z,25.60
2023-03-13T02:00:39.200Z,25.60
2023-03-13T02:00:49.205Z,25.59
2023-03-13T02:00:59.329Z,25.60
2023-03-13T02:01:09.330Z,25.60
2023-03-13T02:01:19.505Z,25.59
2023-03-13T02:01:29.630Z,25.60
2023-03-13T02:01:39.724Z,25.60
2023-03-13T02:01:49.774Z,25.60
2023-03-13T02:01:59.937Z,25.60
2023-03-13T02:02:09.830Z,25.59
2023-03-13T02:02:19.823Z,25.60
2023-03-13T02:02:29.859Z,25.60
2023-03-13T02:02:39.963Z,25.60
2023-03-13T02:02:50.013Z,25.60
2023-03-13T02:03:00.110Z,25.61
2023-03-13T02:03:10.127Z,25.61
2023-03-13T02:03:20.308Z,25.62
2023-03-13T02:03:30.309Z,25.62
2023-03-13T02:03:40.443Z,25.62
2023-03-13T02:03:50.718Z,25.62
2023-03-13T02:04:00.708Z,25.62
2023-03-13T02:04:10.716Z,25.61
2023-03-13T02:04:20.717Z,25.61
2023-03-13T02:04:30.729Z,25.61
2023-03-13T02:04:40.730Z,25.61
2023-03-13T02:04:50.730Z,25.60
2023-03-13T02:05:00.766Z,25.61
2023-03-13T02:05:10.760Z,25.61
2023-03-13T02:05:20.764Z,25.61
2023-03-13T02:05:30.768Z,25.61
2023-03-13T02:05:40.782Z,25.59
2023-03-13T02:05:50.787Z,25.59
2023-03-13T02:06:00.902Z,25.58
2023-03-13T02:06:10.909Z,25.59
2023-03-13T02:06:20.910Z,25.59
2023-03-13T02:06:30.910Z,25.60
2023-03-13T02:06:41.162Z,25.60
2023-03-13T02:06:51.161Z,25.60
2023-03-13T02:07:01.288Z,25.60
2023-03-13T02:07:11.557Z,25.61
2023-03-13T02:07:21.562Z,25.61
2023-03-13T02:07:31.567Z,25.60
2023-03-13T02:07:41.944Z,25.61
2023-03-13T02:07:51.944Z,25.60
2023-03-13T02:08:01.956Z,25.60
2023-03-13T02:08:11.970Z,25.60
2023-03-13T02:08:21.999Z,25.60
2023-03-13T02:08:31.994Z,25.60
2023-03-13T02:08:42.013Z,25.60
2023-03-13T02:08:52.030Z,25.60
2023-03-13T02:09:02.072Z,25.60
2023-03-13T02:09:12.067Z,25.60
2023-03-13T02:09:22.084Z,25.60